sensor_id;sensor_type;location;lat;lon;timestamp;P1;durP1;ratioP1;P2;durP2;ratioP2
15061;SDS011;7630;50.306;8.566;2023-04-10T00:03:56;19.87;;;15.93;;
15061;SDS011;7630;50.306;8.566;2023-04-10T00:07:58;20.30;;;16.47;;
15061;SDS011;7630;50.306;8.566;2023-04-10T00:12:00;19.63;;;17.13;;
15061;SDS011;7630;50.306;8.566;2023-04-10T00:16:01;19.23;;;17.27;;
15061;SDS011;7630;50.306;8.566;2023-04-10T00:20:02;19.63;;;17.60;;
15061;SDS011;7630;50.306;8.566;2023-04-10T00:24:04;18.80;;;16.80;;
15061;SDS011;7630;50.306;8.566;2023-04-10T00:28:06;17.53;;;15.83;;
15061;SDS011;7630;50.306;8.566;2023-04-10T00:32:07;17.13;;;15.43;;
15061;SDS011;7630;50.306;8.566;2023-04-10T00:36:08;17.70;;;15.93;;
15061;SDS011;7630;50.306;8.566;2023-04-10T00:40:09;17.53;;;15.73;;
15061;SDS011;7630;50.306;8.566;2023-04-10T00:44:11;20.00;;;13.83;;
15061;SDS011;7630;50.306;8.566;2023-04-10T00:48:13;17.07;;;15.27;;
15061;SDS011;7630;50.306;8.566;2023-04-10T00:52:14;17.77;;;16.00;;
15061;SDS011;7630;50.306;8.566;2023-04-10T00:56:19;19.07;;;17.10;;
15061;SDS011;7630;50.306;8.566;2023-04-10T01:00:20;20.73;;;18.33;;
15061;SDS011;7630;50.306;8.566;2023-04-10T01:04:21;20.50;;;18.33;;
15061;SDS011;7630;50.306;8.566;2023-04-10T01:08:30;19.73;;;17.80;;
15061;SDS011;7630;50.306;8.566;2023-04-10T01:17:10;18.57;;;16.57;;
15061;SDS011;7630;50.306;8.566;2023-04-10T01:21:13;17.23;;;15.53;;
15061;SDS011;7630;50.306;8.566;2023-04-10T01:25:27;18.83;;;15.07;;
15061;SDS011;7630;50.306;8.566;2023-04-10T01:29:36;17.90;;;16.07;;
15061;SDS011;7630;50.306;8.566;2023-04-10T01:33:46;18.63;;;16.47;;
15061;SDS011;7630;50.306;8.566;2023-04-10T01:37:50;17.83;;;16.03;;
15061;SDS011;7630;50.306;8.566;2023-04-10T01:41:53;17.90;;;15.90;;
15061;SDS011;7630;50.306;8.566;2023-04-10T01:45:56;17.93;;;16.00;;
15061;SDS011;7630;50.306;8.566;2023-04-10T01:49:58;18.80;;;16.80;;
15061;SDS011;7630;50.306;8.566;2023-04-10T01:54:01;19.57;;;17.53;;
15061;SDS011;7630;50.306;8.566;2023-04-10T01:58:05;21.67;;;19.03;;
15061;SDS011;7630;50.306;8.566;2023-04-10T02:02:07;21.60;;;18.50;;
15061;SDS011;7630;50.306;8.566;2023-04-10T02:06:13;19.27;;;17.30;;
15061;SDS011;7630;50.306;8.566;2023-04-10T02:10:35;16.43;;;14.83;;
15061;SDS011;7630;50.306;8.566;2023-04-10T02:14:40;18.10;;;16.27;;
15061;SDS011;7630;50.306;8.566;2023-04-10T02:18:43;19.07;;;17.17;;
15061;SDS011;7630;50.306;8.566;2023-04-10T02:22:45;17.70;;;16.03;;
15061;SDS011;7630;50.306;8.566;2023-04-10T02:26:48;19.07;;;16.97;;
15061;SDS011;7630;50.306;8.566;2023-04-10T02:30:50;19.87;;;16.73;;
15061;SDS011;7630;50.306;8.566;2023-04-10T02:34:52;17.63;;;15.97;;
15061;SDS011;7630;50.306;8.566;2023-04-10T02:38:53;19.33;;;17.30;;
15061;SDS011;7630;50.306;8.566;2023-04-10T02:42:54;18.13;;;16.37;;
15061;SDS011;7630;50.306;8.566;2023-04-10T02:46:55;18.70;;;16.90;;
15061;SDS011;7630;50.306;8.566;2023-04-10T02:50:57;17.83;;;15.83;;
15061;SDS011;7630;50.306;8.566;2023-04-10T02:54:58;19.00;;;17.03;;
15061;SDS011;7630;50.306;8.566;2023-04-10T02:58:59;18.07;;;16.33;;
15061;SDS011;7630;50.306;8.566;2023-04-10T03:03:01;21.07;;;18.40;;
15061;SDS011;7630;50.306;8.566;2023-04-10T03:07:02;19.80;;;17.67;;
15061;SDS011;7630;50.306;8.566;2023-04-10T03:11:04;22.07;;;19.67;;
15061;SDS011;7630;50.306;8.566;2023-04-10T03:15:09;18.87;;;16.87;;
15061;SDS011;7630;50.306;8.566;2023-04-10T03:19:10;18.87;;;16.87;;
15061;SDS011;7630;50.306;8.566;2023-04-10T03:23:12;18.77;;;16.70;;
15061;SDS011;7630;50.306;8.566;2023-04-10T03:27:13;17.23;;;15.60;;
15061;SDS011;7630;50.306;8.566;2023-04-10T03:31:15;19.10;;;17.23;;
15061;SDS011;7630;50.306;8.566;2023-04-10T03:35:16;17.67;;;15.97;;
15061;SDS011;7630;50.306;8.566;2023-04-10T03:39:18;16.47;;;14.63;;
15061;SDS011;7630;50.306;8.566;2023-04-10T03:43:19;15.87;;;14.23;;
15061;SDS011;7630;50.306;8.566;2023-04-10T03:47:20;16.67;;;15.03;;
15061;SDS011;7630;50.306;8.566;2023-04-10T03:51:22;15.50;;;14.00;;
15061;SDS011;7630;50.306;8.566;2023-04-10T03:55:24;14.90;;;13.60;;
15061;SDS011;7630;50.306;8.566;2023-04-10T03:59:25;18.87;;;15.70;;
15061;SDS011;7630;50.306;8.566;2023-04-10T04:03:28;15.40;;;13.80;;
15061;SDS011;7630;50.306;8.566;2023-04-10T04:07:29;16.30;;;14.70;;
15061;SDS011;7630;50.306;8.566;2023-04-10T04:11:31;17.53;;;14.87;;
15061;SDS011;7630;50.306;8.566;2023-04-10T04:15:32;16.03;;;14.30;;
15061;SDS011;7630;50.306;8.566;2023-04-10T04:19:33;16.10;;;14.40;;
15061;SDS011;7630;50.306;8.566;2023-04-10T04:23:34;15.93;;;14.30;;
15061;SDS011;7630;50.306;8.566;2023-04-10T04:27:36;17.87;;;16.07;;
15061;SDS011;7630;50.306;8.566;2023-04-10T04:31:37;18.53;;;16.67;;
15061;SDS011;7630;50.306;8.566;2023-04-10T04:35:38;18.07;;;16.30;;
15061;SDS011;7630;50.306;8.566;2023-04-10T04:39:40;18.50;;;16.60;;
15061;SDS011;7630;50.306;8.566;2023-04-10T04:43:41;19.40;;;17.40;;
15061;SDS011;7630;50.306;8.566;2023-04-10T04:47:42;18.27;;;16.43;;
15061;SDS011;7630;50.306;8.566;2023-04-10T04:51:45;17.73;;;15.37;;
15061;SDS011;7630;50.306;8.566;2023-04-10T04:55:46;18.30;;;16.50;;
15061;SDS011;7630;50.306;8.566;2023-04-10T04:59:47;18.10;;;16.30;;
15061;SDS011;7630;50.306;8.566;2023-04-10T05:03:48;19.67;;;17.63;;
15061;SDS011;7630;50.306;8.566;2023-04-10T05:07:50;20.10;;;18.20;;
15061;SDS011;7630;50.306;8.566;2023-04-10T05:11:51;20.23;;;17.67;;
15061;SDS011;7630;50.306;8.566;2023-04-10T05:15:54;19.97;;;17.90;;
15061;SDS011;7630;50.306;8.566;2023-04-10T05:19:55;18.43;;;16.53;;
15061;SDS011;7630;50.306;8.566;2023-04-10T05:23:56;18.40;;;16.47;;
15061;SDS011;7630;50.306;8.566;2023-04-10T05:27:57;18.43;;;16.60;;
15061;SDS011;7630;50.306;8.566;2023-04-10T05:31:59;15.87;;;14.27;;
15061;SDS011;7630;50.306;8.566;2023-04-10T05:36:00;15.90;;;14.27;;
15061;SDS011;7630;50.306;8.566;2023-04-10T05:40:02;15.67;;;14.17;;
15061;SDS011;7630;50.306;8.566;2023-04-10T05:44:04;15.20;;;13.70;;
15061;SDS011;7630;50.306;8.566;2023-04-10T05:48:05;17.47;;;15.67;;
15061;SDS011;7630;50.306;8.566;2023-04-10T05:52:06;15.77;;;14.27;;
15061;SDS011;7630;50.306;8.566;2023-04-10T05:56:07;15.73;;;14.33;;
15061;SDS011;7630;50.306;8.566;2023-04-10T06:00:09;15.43;;;14.07;;
15061;SDS011;7630;50.306;8.566;2023-04-10T06:04:11;16.13;;;14.43;;
15061;SDS011;7630;50.306;8.566;2023-04-10T06:08:12;17.33;;;15.70;;
15061;SDS011;7630;50.306;8.566;2023-04-10T06:12:13;17.07;;;15.27;;
15061;SDS011;7630;50.306;8.566;2023-04-10T06:16:14;16.87;;;15.33;;
15061;SDS011;7630;50.306;8.566;2023-04-10T06:20:16;17.40;;;15.67;;
15061;SDS011;7630;50.306;8.566;2023-04-10T06:24:17;16.50;;;14.93;;
15061;SDS011;7630;50.306;8.566;2023-04-10T06:28:18;16.63;;;15.13;;
15061;SDS011;7630;50.306;8.566;2023-04-10T06:32:19;16.73;;;15.13;;
15061;SDS011;7630;50.306;8.566;2023-04-10T06:36:20;15.53;;;14.13;;
15061;SDS011;7630;50.306;8.566;2023-04-10T06:40:22;16.93;;;15.33;;
15061;SDS011;7630;50.306;8.566;2023-04-10T06:44:23;15.63;;;14.20;;
15061;SDS011;7630;50.306;8.566;2023-04-10T06:48:24;16.30;;;14.67;;
15061;SDS011;7630;50.306;8.566;2023-04-10T06:52:25;16.13;;;14.73;;
15061;SDS011;7630;50.306;8.566;2023-04-10T06:56:26;15.53;;;14.13;;
15061;SDS011;7630;50.306;8.566;2023-04-10T07:00:28;15.83;;;14.43;;
15061;SDS011;7630;50.306;8.566;2023-04-10T07:04:30;16.10;;;14.53;;
15061;SDS011;7630;50.306;8.566;2023-04-10T07:08:31;17.30;;;15.80;;
15061;SDS011;7630;50.306;8.566;2023-04-10T07:12:33;18.77;;;16.77;;
15061;SDS011;7630;50.306;8.566;2023-04-10T07:16:34;15.83;;;14.43;;
15061;SDS011;7630;50.306;8.566;2023-04-10T07:20:35;15.20;;;13.90;;
15061;SDS011;7630;50.306;8.566;2023-04-10T07:24:36;15.00;;;13.60;;
15061;SDS011;7630;50.306;8.566;2023-04-10T07:28:37;15.07;;;13.70;;
15061;SDS011;7630;50.306;8.566;2023-04-10T07:32:39;15.50;;;14.00;;
15061;SDS011;7630;50.306;8.566;2023-04-10T07:36:41;18.63;;;14.47;;
15061;SDS011;7630;50.306;8.566;2023-04-10T07:40:45;16.37;;;14.87;;
15061;SDS011;7630;50.306;8.566;2023-04-10T07:44:46;16.13;;;14.63;;
15061;SDS011;7630;50.306;8.566;2023-04-10T07:48:47;16.33;;;14.73;;
15061;SDS011;7630;50.306;8.566;2023-04-10T07:52:49;15.37;;;14.00;;
15061;SDS011;7630;50.306;8.566;2023-04-10T07:56:51;15.57;;;14.10;;
15061;SDS011;7630;50.306;8.566;2023-04-10T08:00:52;16.67;;;15.17;;
15061;SDS011;7630;50.306;8.566;2023-04-10T08:04:53;18.03;;;16.23;;
15061;SDS011;7630;50.306;8.566;2023-04-10T08:08:55;17.10;;;15.43;;
15061;SDS011;7630;50.306;8.566;2023-04-10T08:12:56;17.23;;;15.73;;
15061;SDS011;7630;50.306;8.566;2023-04-10T08:16:57;15.90;;;14.50;;
15061;SDS011;7630;50.306;8.566;2023-04-10T08:20:59;16.43;;;14.93;;
15061;SDS011;7630;50.306;8.566;2023-04-10T08:25:00;18.03;;;16.33;;
15061;SDS011;7630;50.306;8.566;2023-04-10T08:29:01;15.43;;;14.10;;
15061;SDS011;7630;50.306;8.566;2023-04-10T08:33:02;15.00;;;13.70;;
15061;SDS011;7630;50.306;8.566;2023-04-10T08:41:14;17.87;;;16.13;;
15061;SDS011;7630;50.306;8.566;2023-04-10T08:45:17;14.47;;;13.17;;
15061;SDS011;7630;50.306;8.566;2023-04-10T08:49:24;16.00;;;14.50;;
15061;SDS011;7630;50.306;8.566;2023-04-10T08:53:23;16.60;;;15.00;;
15061;SDS011;7630;50.306;8.566;2023-04-10T08:57:28;15.53;;;14.13;;
15061;SDS011;7630;50.306;8.566;2023-04-10T09:01:29;16.40;;;14.70;;
15061;SDS011;7630;50.306;8.566;2023-04-10T09:05:30;15.80;;;14.33;;
15061;SDS011;7630;50.306;8.566;2023-04-10T09:09:32;17.13;;;15.53;;
15061;SDS011;7630;50.306;8.566;2023-04-10T09:13:37;16.70;;;15.20;;
15061;SDS011;7630;50.306;8.566;2023-04-10T09:17:54;15.87;;;14.37;;
15061;SDS011;7630;50.306;8.566;2023-04-10T09:21:58;14.70;;;13.47;;
15061;SDS011;7630;50.306;8.566;2023-04-10T09:25:59;16.03;;;14.63;;
15061;SDS011;7630;50.306;8.566;2023-04-10T09:30:00;15.23;;;13.73;;
15061;SDS011;7630;50.306;8.566;2023-04-10T09:38:16;15.53;;;14.13;;
15061;SDS011;7630;50.306;8.566;2023-04-10T09:42:28;14.43;;;13.00;;
15061;SDS011;7630;50.306;8.566;2023-04-10T09:46:27;13.77;;;12.50;;
15061;SDS011;7630;50.306;8.566;2023-04-10T09:50:34;12.67;;;11.67;;
15061;SDS011;7630;50.306;8.566;2023-04-10T09:54:38;11.87;;;10.77;;
15061;SDS011;7630;50.306;8.566;2023-04-10T09:58:39;11.20;;;10.30;;
15061;SDS011;7630;50.306;8.566;2023-04-10T10:02:40;14.50;;;10.90;;
15061;SDS011;7630;50.306;8.566;2023-04-10T10:06:42;11.53;;;10.50;;
15061;SDS011;7630;50.306;8.566;2023-04-10T10:10:52;11.20;;;10.23;;
15061;SDS011;7630;50.306;8.566;2023-04-10T10:19:42;11.60;;;10.60;;
15061;SDS011;7630;50.306;8.566;2023-04-10T10:23:43;10.07;;;9.17;;
15061;SDS011;7630;50.306;8.566;2023-04-10T10:27:45;9.17;;;8.43;;
15061;SDS011;7630;50.306;8.566;2023-04-10T10:31:49;8.97;;;8.27;;
15061;SDS011;7630;50.306;8.566;2023-04-10T10:35:52;9.17;;;8.47;;
15061;SDS011;7630;50.306;8.566;2023-04-10T10:40:09;10.60;;;9.67;;
15061;SDS011;7630;50.306;8.566;2023-04-10T10:44:55;10.07;;;9.27;;
15061;SDS011;7630;50.306;8.566;2023-04-10T10:48:25;9.73;;;8.87;;
15061;SDS011;7630;50.306;8.566;2023-04-10T10:52:35;8.60;;;7.90;;
15061;SDS011;7630;50.306;8.566;2023-04-10T10:56:42;9.53;;;8.80;;
15061;SDS011;7630;50.306;8.566;2023-04-10T11:04:54;8.97;;;8.27;;
15061;SDS011;7630;50.306;8.566;2023-04-10T11:08:55;9.87;;;9.07;;
15061;SDS011;7630;50.306;8.566;2023-04-10T11:13:16;8.83;;;8.13;;
15061;SDS011;7630;50.306;8.566;2023-04-10T11:17:44;8.10;;;7.50;;
15061;SDS011;7630;50.306;8.566;2023-04-10T11:26:00;8.07;;;7.43;;
15061;SDS011;7630;50.306;8.566;2023-04-10T11:30:02;9.17;;;8.47;;
15061;SDS011;7630;50.306;8.566;2023-04-10T11:34:07;9.50;;;8.60;;
15061;SDS011;7630;50.306;8.566;2023-04-10T11:38:14;8.53;;;7.83;;
15061;SDS011;7630;50.306;8.566;2023-04-10T11:42:19;8.73;;;8.03;;
15061;SDS011;7630;50.306;8.566;2023-04-10T11:46:22;8.13;;;7.33;;
15061;SDS011;7630;50.306;8.566;2023-04-10T11:50:23;9.07;;;8.37;;
15061;SDS011;7630;50.306;8.566;2023-04-10T11:54:29;8.17;;;7.57;;
15061;SDS011;7630;50.306;8.566;2023-04-10T11:58:31;8.60;;;7.90;;
15061;SDS011;7630;50.306;8.566;2023-04-10T12:02:32;7.93;;;7.33;;
15061;SDS011;7630;50.306;8.566;2023-04-10T12:06:33;7.90;;;7.30;;
15061;SDS011;7630;50.306;8.566;2023-04-10T12:10:45;6.97;;;6.47;;
15061;SDS011;7630;50.306;8.566;2023-04-10T12:14:46;8.23;;;7.30;;
15061;SDS011;7630;50.306;8.566;2023-04-10T12:18:48;8.87;;;8.17;;
15061;SDS011;7630;50.306;8.566;2023-04-10T12:22:50;7.80;;;7.30;;
15061;SDS011;7630;50.306;8.566;2023-04-10T12:26:51;8.03;;;7.47;;
15061;SDS011;7630;50.306;8.566;2023-04-10T12:30:52;8.27;;;7.67;;
15061;SDS011;7630;50.306;8.566;2023-04-10T12:34:58;6.43;;;5.93;;
15061;SDS011;7630;50.306;8.566;2023-04-10T12:38:58;7.07;;;6.43;;
15061;SDS011;7630;50.306;8.566;2023-04-10T12:43:00;9.90;;;7.20;;
15061;SDS011;7630;50.306;8.566;2023-04-10T12:47:01;7.20;;;6.60;;
15061;SDS011;7630;50.306;8.566;2023-04-10T12:51:03;6.77;;;6.23;;
15061;SDS011;7630;50.306;8.566;2023-04-10T12:55:08;6.57;;;6.03;;
15061;SDS011;7630;50.306;8.566;2023-04-10T12:59:16;6.13;;;5.03;;
15061;SDS011;7630;50.306;8.566;2023-04-10T13:03:17;4.83;;;4.43;;
15061;SDS011;7630;50.306;8.566;2023-04-10T13:07:18;4.50;;;4.20;;
15061;SDS011;7630;50.306;8.566;2023-04-10T13:11:20;3.73;;;3.43;;
15061;SDS011;7630;50.306;8.566;2023-04-10T13:15:22;3.33;;;3.13;;
15061;SDS011;7630;50.306;8.566;2023-04-10T13:19:24;3.53;;;3.23;;
15061;SDS011;7630;50.306;8.566;2023-04-10T13:23:25;2.70;;;2.60;;
15061;SDS011;7630;50.306;8.566;2023-04-10T13:27:28;3.37;;;3.17;;
15061;SDS011;7630;50.306;8.566;2023-04-10T13:31:30;3.30;;;3.10;;
15061;SDS011;7630;50.306;8.566;2023-04-10T13:35:31;2.83;;;2.67;;
15061;SDS011;7630;50.306;8.566;2023-04-10T13:39:32;3.07;;;2.87;;
15061;SDS011;7630;50.306;8.566;2023-04-10T13:43:34;3.17;;;2.97;;
15061;SDS011;7630;50.306;8.566;2023-04-10T13:47:36;3.37;;;3.13;;
15061;SDS011;7630;50.306;8.566;2023-04-10T13:51:37;2.90;;;2.70;;
15061;SDS011;7630;50.306;8.566;2023-04-10T13:55:38;3.57;;;3.10;;
15061;SDS011;7630;50.306;8.566;2023-04-10T13:59:41;3.50;;;3.20;;
15061;SDS011;7630;50.306;8.566;2023-04-10T14:03:42;3.17;;;2.97;;
15061;SDS011;7630;50.306;8.566;2023-04-10T14:07:44;4.20;;;3.37;;
15061;SDS011;7630;50.306;8.566;2023-04-10T14:11:45;3.30;;;2.97;;
15061;SDS011;7630;50.306;8.566;2023-04-10T14:15:46;4.07;;;3.70;;
15061;SDS011;7630;50.306;8.566;2023-04-10T14:19:47;4.60;;;4.20;;
15061;SDS011;7630;50.306;8.566;2023-04-10T14:23:50;3.60;;;3.30;;
15061;SDS011;7630;50.306;8.566;2023-04-10T14:27:51;4.40;;;4.10;;
15061;SDS011;7630;50.306;8.566;2023-04-10T14:31:53;6.10;;;3.87;;
15061;SDS011;7630;50.306;8.566;2023-04-10T14:35:55;4.20;;;3.90;;
15061;SDS011;7630;50.306;8.566;2023-04-10T14:39:56;4.43;;;4.03;;
15061;SDS011;7630;50.306;8.566;2023-04-10T14:43:58;4.37;;;3.83;;
15061;SDS011;7630;50.306;8.566;2023-04-10T14:47:59;4.40;;;4.10;;
15061;SDS011;7630;50.306;8.566;2023-04-10T14:52:02;4.57;;;4.27;;
15061;SDS011;7630;50.306;8.566;2023-04-10T14:56:08;3.90;;;3.60;;
15061;SDS011;7630;50.306;8.566;2023-04-10T15:00:08;4.93;;;3.63;;
15061;SDS011;7630;50.306;8.566;2023-04-10T15:04:10;4.50;;;3.47;;
15061;SDS011;7630;50.306;8.566;2023-04-10T15:08:11;3.57;;;3.37;;
15061;SDS011;7630;50.306;8.566;2023-04-10T15:12:13;3.80;;;3.50;;
15061;SDS011;7630;50.306;8.566;2023-04-10T15:16:14;3.83;;;3.53;;
15061;SDS011;7630;50.306;8.566;2023-04-10T15:20:15;6.57;;;3.70;;
15061;SDS011;7630;50.306;8.566;2023-04-10T15:28:41;4.30;;;4.00;;
15061;SDS011;7630;50.306;8.566;2023-04-10T15:32:42;4.50;;;4.10;;
15061;SDS011;7630;50.306;8.566;2023-04-10T15:36:43;3.27;;;3.07;;
15061;SDS011;7630;50.306;8.566;2023-04-10T15:40:45;3.17;;;2.97;;
15061;SDS011;7630;50.306;8.566;2023-04-10T15:44:46;3.47;;;3.27;;
15061;SDS011;7630;50.306;8.566;2023-04-10T15:48:49;3.20;;;2.93;;
15061;SDS011;7630;50.306;8.566;2023-04-10T15:52:50;3.53;;;3.20;;
15061;SDS011;7630;50.306;8.566;2023-04-10T15:56:51;3.63;;;3.33;;
15061;SDS011;7630;50.306;8.566;2023-04-10T16:00:52;3.67;;;3.17;;
15061;SDS011;7630;50.306;8.566;2023-04-10T16:04:53;3.40;;;3.13;;
15061;SDS011;7630;50.306;8.566;2023-04-10T16:08:54;3.37;;;3.17;;
15061;SDS011;7630;50.306;8.566;2023-04-10T16:12:55;6.77;;;3.60;;
15061;SDS011;7630;50.306;8.566;2023-04-10T16:16:59;2.77;;;2.57;;
15061;SDS011;7630;50.306;8.566;2023-04-10T16:21:00;4.43;;;4.03;;
15061;SDS011;7630;50.306;8.566;2023-04-10T16:25:01;3.80;;;3.50;;
15061;SDS011;7630;50.306;8.566;2023-04-10T16:29:02;3.47;;;3.17;;
15061;SDS011;7630;50.306;8.566;2023-04-10T16:33:03;3.67;;;3.47;;
15061;SDS011;7630;50.306;8.566;2023-04-10T16:37:05;3.10;;;2.87;;
15061;SDS011;7630;50.306;8.566;2023-04-10T16:41:06;8.23;;;6.47;;
15061;SDS011;7630;50.306;8.566;2023-04-10T16:45:07;4.30;;;3.90;;
15061;SDS011;7630;50.306;8.566;2023-04-10T16:49:09;3.67;;;3.37;;
15061;SDS011;7630;50.306;8.566;2023-04-10T16:53:10;5.37;;;4.87;;
15061;SDS011;7630;50.306;8.566;2023-04-10T16:57:11;3.63;;;3.33;;
15061;SDS011;7630;50.306;8.566;2023-04-10T17:01:13;4.37;;;3.97;;
15061;SDS011;7630;50.306;8.566;2023-04-10T17:05:23;7.20;;;6.53;;
15061;SDS011;7630;50.306;8.566;2023-04-10T17:09:24;4.20;;;3.80;;
15061;SDS011;7630;50.306;8.566;2023-04-10T17:13:25;2.97;;;2.77;;
15061;SDS011;7630;50.306;8.566;2023-04-10T17:17:26;2.50;;;2.30;;
15061;SDS011;7630;50.306;8.566;2023-04-10T17:21:28;3.57;;;3.23;;
15061;SDS011;7630;50.306;8.566;2023-04-10T17:25:29;3.33;;;3.13;;
15061;SDS011;7630;50.306;8.566;2023-04-10T17:29:33;5.13;;;3.67;;
15061;SDS011;7630;50.306;8.566;2023-04-10T17:33:38;3.93;;;3.63;;
15061;SDS011;7630;50.306;8.566;2023-04-10T17:37:41;3.90;;;3.60;;
15061;SDS011;7630;50.306;8.566;2023-04-10T17:41:42;4.23;;;3.83;;
15061;SDS011;7630;50.306;8.566;2023-04-10T17:45:43;4.03;;;3.73;;
15061;SDS011;7630;50.306;8.566;2023-04-10T17:49:45;3.97;;;3.60;;
15061;SDS011;7630;50.306;8.566;2023-04-10T17:53:46;3.43;;;3.23;;
15061;SDS011;7630;50.306;8.566;2023-04-10T17:57:47;3.43;;;2.90;;
15061;SDS011;7630;50.306;8.566;2023-04-10T18:01:48;2.80;;;2.60;;
15061;SDS011;7630;50.306;8.566;2023-04-10T18:05:50;4.60;;;3.90;;
15061;SDS011;7630;50.306;8.566;2023-04-10T18:09:52;3.07;;;2.87;;
15061;SDS011;7630;50.306;8.566;2023-04-10T18:13:54;2.80;;;2.60;;
15061;SDS011;7630;50.306;8.566;2023-04-10T18:17:55;3.33;;;3.10;;
15061;SDS011;7630;50.306;8.566;2023-04-10T18:21:56;3.40;;;3.10;;
15061;SDS011;7630;50.306;8.566;2023-04-10T18:25:57;2.53;;;2.33;;
15061;SDS011;7630;50.306;8.566;2023-04-10T18:29:59;2.43;;;2.33;;
15061;SDS011;7630;50.306;8.566;2023-04-10T18:34:00;2.80;;;2.60;;
15061;SDS011;7630;50.306;8.566;2023-04-10T18:38:03;3.17;;;2.87;;
15061;SDS011;7630;50.306;8.566;2023-04-10T18:42:05;2.70;;;2.50;;
15061;SDS011;7630;50.306;8.566;2023-04-10T18:46:08;2.67;;;2.47;;
15061;SDS011;7630;50.306;8.566;2023-04-10T18:50:09;3.03;;;2.83;;
15061;SDS011;7630;50.306;8.566;2023-04-10T18:54:11;3.17;;;2.87;;
15061;SDS011;7630;50.306;8.566;2023-04-10T18:58:12;3.40;;;3.20;;
15061;SDS011;7630;50.306;8.566;2023-04-10T19:02:13;3.17;;;2.97;;
15061;SDS011;7630;50.306;8.566;2023-04-10T19:06:14;3.27;;;2.97;;
15061;SDS011;7630;50.306;8.566;2023-04-10T19:10:17;3.13;;;2.93;;
15061;SDS011;7630;50.306;8.566;2023-04-10T19:14:18;3.27;;;2.97;;
15061;SDS011;7630;50.306;8.566;2023-04-10T19:18:19;3.67;;;3.37;;
15061;SDS011;7630;50.306;8.566;2023-04-10T19:22:20;3.57;;;3.30;;
15061;SDS011;7630;50.306;8.566;2023-04-10T19:26:21;3.23;;;2.93;;
15061;SDS011;7630;50.306;8.566;2023-04-10T19:30:22;6.73;;;3.20;;
15061;SDS011;7630;50.306;8.566;2023-04-10T19:34:23;3.17;;;2.97;;
15061;SDS011;7630;50.306;8.566;2023-04-10T19:38:25;4.00;;;3.60;;
15061;SDS011;7630;50.306;8.566;2023-04-10T19:42:28;3.40;;;3.20;;
15061;SDS011;7630;50.306;8.566;2023-04-10T19:46:30;3.80;;;3.50;;
15061;SDS011;7630;50.306;8.566;2023-04-10T19:50:31;3.20;;;3.00;;
15061;SDS011;7630;50.306;8.566;2023-04-10T19:54:33;3.53;;;3.33;;
15061;SDS011;7630;50.306;8.566;2023-04-10T19:58:34;3.50;;;3.10;;
15061;SDS011;7630;50.306;8.566;2023-04-10T20:02:37;3.97;;;3.67;;
15061;SDS011;7630;50.306;8.566;2023-04-10T20:06:39;4.93;;;4.13;;
15061;SDS011;7630;50.306;8.566;2023-04-10T20:10:42;4.03;;;3.73;;
15061;SDS011;7630;50.306;8.566;2023-04-10T20:14:43;4.03;;;3.73;;
15061;SDS011;7630;50.306;8.566;2023-04-10T20:18:44;3.67;;;3.37;;
15061;SDS011;7630;50.306;8.566;2023-04-10T20:22:46;3.93;;;3.63;;
15061;SDS011;7630;50.306;8.566;2023-04-10T20:26:47;4.17;;;3.80;;
15061;SDS011;7630;50.306;8.566;2023-04-10T20:30:48;3.93;;;3.73;;
15061;SDS011;7630;50.306;8.566;2023-04-10T20:34:49;5.10;;;4.70;;
15061;SDS011;7630;50.306;8.566;2023-04-10T20:38:50;5.97;;;4.93;;
15061;SDS011;7630;50.306;8.566;2023-04-10T20:42:52;5.27;;;4.87;;
15061;SDS011;7630;50.306;8.566;2023-04-10T20:46:53;4.47;;;4.17;;
15061;SDS011;7630;50.306;8.566;2023-04-10T20:50:54;4.57;;;4.27;;
15061;SDS011;7630;50.306;8.566;2023-04-10T20:54:56;5.57;;;4.53;;
15061;SDS011;7630;50.306;8.566;2023-04-10T20:58:57;4.23;;;4.03;;
15061;SDS011;7630;50.306;8.566;2023-04-10T21:02:58;6.57;;;5.87;;
15061;SDS011;7630;50.306;8.566;2023-04-10T21:07:00;5.10;;;4.80;;
15061;SDS011;7630;50.306;8.566;2023-04-10T21:11:01;3.97;;;3.67;;
15061;SDS011;7630;50.306;8.566;2023-04-10T21:15:03;5.70;;;4.23;;
15061;SDS011;7630;50.306;8.566;2023-04-10T21:19:04;3.73;;;3.43;;
15061;SDS011;7630;50.306;8.566;2023-04-10T21:23:05;4.63;;;4.23;;
15061;SDS011;7630;50.306;8.566;2023-04-10T21:27:07;4.00;;;3.57;;
15061;SDS011;7630;50.306;8.566;2023-04-10T21:31:08;3.90;;;3.60;;
15061;SDS011;7630;50.306;8.566;2023-04-10T21:35:09;4.60;;;3.90;;
15061;SDS011;7630;50.306;8.566;2023-04-10T21:39:10;4.10;;;3.67;;
15061;SDS011;7630;50.306;8.566;2023-04-10T21:43:12;3.73;;;3.53;;
15061;SDS011;7630;50.306;8.566;2023-04-10T21:47:13;3.50;;;3.27;;
15061;SDS011;7630;50.306;8.566;2023-04-10T21:51:14;3.80;;;3.50;;
15061;SDS011;7630;50.306;8.566;2023-04-10T21:55:15;3.80;;;3.50;;
15061;SDS011;7630;50.306;8.566;2023-04-10T21:59:17;3.37;;;3.03;;
15061;SDS011;7630;50.306;8.566;2023-04-10T22:03:18;4.43;;;3.37;;
15061;SDS011;7630;50.306;8.566;2023-04-10T22:07:20;5.90;;;3.80;;
15061;SDS011;7630;50.306;8.566;2023-04-10T22:11:21;4.83;;;4.37;;
15061;SDS011;7630;50.306;8.566;2023-04-10T22:15:22;5.33;;;4.20;;
15061;SDS011;7630;50.306;8.566;2023-04-10T22:23:26;5.33;;;4.83;;
15061;SDS011;7630;50.306;8.566;2023-04-10T22:27:28;5.63;;;5.13;;
15061;SDS011;7630;50.306;8.566;2023-04-10T22:31:29;6.03;;;5.53;;
15061;SDS011;7630;50.306;8.566;2023-04-10T22:35:30;6.17;;;5.60;;
15061;SDS011;7630;50.306;8.566;2023-04-10T22:39:32;6.77;;;5.97;;
15061;SDS011;7630;50.306;8.566;2023-04-10T22:43:33;7.13;;;6.43;;
15061;SDS011;7630;50.306;8.566;2023-04-10T22:47:34;8.20;;;7.50;;
15061;SDS011;7630;50.306;8.566;2023-04-10T22:51:36;8.87;;;8.07;;
15061;SDS011;7630;50.306;8.566;2023-04-10T22:55:37;7.87;;;7.27;;
15061;SDS011;7630;50.306;8.566;2023-04-10T22:59:39;8.83;;;8.13;;
15061;SDS011;7630;50.306;8.566;2023-04-10T23:03:40;8.73;;;7.93;;
15061;SDS011;7630;50.306;8.566;2023-04-10T23:07:41;9.60;;;7.77;;
15061;SDS011;7630;50.306;8.566;2023-04-10T23:11:43;7.83;;;7.23;;
15061;SDS011;7630;50.306;8.566;2023-04-10T23:15:52;9.73;;;8.80;;
15061;SDS011;7630;50.306;8.566;2023-04-10T23:19:55;10.27;;;9.30;;
15061;SDS011;7630;50.306;8.566;2023-04-10T23:23:56;11.37;;;8.90;;
15061;SDS011;7630;50.306;8.566;2023-04-10T23:27:57;5.10;;;3.27;;
15061;SDS011;7630;50.306;8.566;2023-04-10T23:31:59;2.10;;;1.50;;
15061;SDS011;7630;50.306;8.566;2023-04-10T23:36:00;7.53;;;2.00;;
15061;SDS011;7630;50.306;8.566;2023-04-10T23:40:02;2.43;;;1.77;;
15061;SDS011;7630;50.306;8.566;2023-04-10T23:44:04;2.10;;;2.00;;
15061;SDS011;7630;50.306;8.566;2023-04-10T23:48:06;1.97;;;1.83;;
15061;SDS011;7630;50.306;8.566;2023-04-10T23:52:08;1.90;;;1.80;;
15061;SDS011;7630;50.306;8.566;2023-04-10T23:56:10;2.27;;;2.03;;
